createdAt,value
2019-05-01T00:01:23.727Z,18.35
2019-05-01T00:03:35.249Z,13.98
2019-05-01T00:05:52.111Z,12.80
2019-05-01T00:07:56.536Z,12.78
2019-05-01T00:10:01.261Z,13.32
2019-05-01T00:12:05.373Z,16.27
2019-05-01T00:14:10.016Z,17.00
2019-05-01T00:16:14.048Z,12.73
2019-05-01T00:18:18.043Z,15.03
2019-05-01T00:20:21.974Z,14.23
2019-05-01T00:22:26.027Z,13.68
2019-05-01T00:24:29.982Z,17.50
2019-05-01T00:26:35.677Z,13.28
2019-05-01T00:28:39.586Z,14.03
2019-05-01T00:30:43.589Z,13.68
2019-05-01T00:32:47.720Z,12.88
2019-05-01T00:34:51.937Z,15.68
2019-05-01T00:36:56.038Z,16.27
2019-05-01T00:39:00.132Z,16.07
2019-05-01T00:41:04.027Z,18.87
2019-05-01T00:43:08.059Z,12.73
2019-05-01T00:45:13.540Z,14.73
2019-05-01T00:47:20.137Z,15.32
2019-05-01T00:49:24.370Z,16.17
2019-05-01T00:51:28.265Z,15.20
2019-05-01T00:53:32.178Z,12.18
2019-05-01T00:55:37.928Z,13.53
2019-05-01T00:57:43.772Z,13.98
2019-05-01T00:59:55.062Z,17.92
2019-05-01T01:02:03.497Z,16.67
2019-05-01T01:04:08.087Z,13.80
2019-05-01T01:06:12.035Z,14.40
2019-05-01T01:08:16.159Z,15.45
2019-05-01T01:10:20.344Z,19.12
2019-05-01T01:12:25.950Z,14.95
2019-05-01T01:14:31.405Z,13.75
2019-05-01T01:16:35.482Z,11.40
2019-05-01T01:18:39.593Z,17.87
2019-05-01T01:20:43.598Z,12.53
2019-05-01T01:22:47.607Z,15.60
2019-05-01T01:24:51.607Z,11.90
2019-05-01T01:26:55.795Z,15.55
2019-05-01T01:29:00.023Z,13.65
2019-05-01T01:31:04.173Z,14.65
2019-05-01T01:33:09.619Z,13.50
2019-05-01T01:35:14.114Z,14.43
2019-05-01T01:37:18.119Z,15.58
2019-05-01T01:39:23.651Z,15.00
2019-05-01T01:41:27.630Z,12.93
2019-05-01T01:43:51.479Z,12.93
2019-05-01T01:45:57.295Z,18.00
2019-05-01T01:48:15.994Z,12.63
2019-05-01T01:50:19.949Z,17.60
2019-05-01T01:52:25.768Z,11.03
2019-05-01T01:54:30.011Z,13.35
2019-05-01T01:56:33.918Z,12.50
2019-05-01T01:58:38.176Z,16.57
2019-05-01T02:00:47.411Z,18.02
2019-05-01T02:02:54.201Z,12.23
2019-05-01T02:04:59.780Z,14.78
2019-05-01T02:07:05.990Z,17.55
2019-05-01T02:09:10.149Z,13.10
2019-05-01T02:11:14.361Z,20.85
2019-05-01T02:13:18.310Z,13.62
2019-05-01T02:15:22.378Z,14.25
2019-05-01T02:17:26.470Z,16.87
2019-05-01T02:19:30.393Z,15.88
2019-05-01T02:21:34.318Z,13.62
2019-05-01T02:23:38.189Z,20.45
2019-05-01T02:25:43.336Z,14.23
2019-05-01T02:27:49.290Z,19.32
2019-05-01T02:29:55.181Z,15.58
2019-05-01T02:32:02.130Z,14.90
2019-05-01T02:34:07.994Z,17.27
2019-05-01T02:36:14.160Z,18.90
2019-05-01T02:38:18.508Z,15.93
2019-05-01T02:40:43.752Z,20.48
2019-05-01T02:42:47.700Z,18.15
2019-05-01T02:44:53.402Z,24.98
2019-05-01T02:47:01.308Z,18.40
2019-05-01T02:49:08.226Z,18.85
2019-05-01T02:51:13.951Z,15.53
2019-05-01T02:53:20.268Z,16.93
2019-05-01T02:55:26.293Z,22.07
2019-05-01T02:57:31.253Z,19.50
2019-05-01T02:59:38.299Z,17.67
2019-05-01T03:01:47.594Z,18.77
2019-05-01T03:03:51.179Z,19.57
2019-05-01T03:05:55.190Z,17.75
2019-05-01T03:08:00.528Z,18.67
2019-05-01T03:10:09.373Z,21.70
2019-05-01T03:12:12.025Z,21.00
2019-05-01T03:14:18.488Z,22.85
2019-05-01T03:16:25.900Z,22.40
2019-05-01T03:18:37.262Z,23.42
2019-05-01T03:20:42.806Z,21.00
2019-05-01T03:22:51.359Z,21.27
2019-05-01T03:24:55.658Z,19.80
2019-05-01T03:26:59.928Z,20.00
2019-05-01T03:29:05.760Z,21.45
2019-05-01T03:31:09.908Z,18.87
2019-05-01T03:33:13.768Z,18.48
2019-05-01T03:35:18.026Z,19.05
2019-05-01T03:37:22.284Z,21.27
2019-05-01T03:39:38.317Z,23.35
2019-05-01T03:41:44.727Z,22.05
2019-05-01T03:43:48.609Z,22.65
2019-05-01T03:45:53.028Z,23.75
2019-05-01T03:47:58.438Z,19.00
2019-05-01T03:50:03.928Z,19.55
2019-05-01T03:52:08.120Z,19.12
2019-05-01T03:54:12.909Z,22.22
2019-05-01T03:56:16.752Z,27.17
2019-05-01T03:58:20.886Z,22.77
2019-05-01T04:00:29.633Z,21.70
2019-05-01T04:02:37.723Z,20.37
2019-05-01T04:04:41.591Z,20.12
2019-05-01T04:06:47.340Z,24.00
2019-05-01T04:08:51.641Z,17.57
2019-05-01T04:10:56.289Z,24.10
2019-05-01T04:13:00.443Z,19.60
2019-05-01T04:15:06.120Z,26.25
2019-05-01T04:17:17.876Z,22.87
2019-05-01T04:19:22.203Z,18.85
2019-05-01T04:21:27.796Z,23.40
2019-05-01T04:23:32.081Z,22.00
2019-05-01T04:25:36.905Z,20.85
2019-05-01T04:27:42.391Z,19.82
2019-05-01T04:29:51.785Z,25.57
2019-05-01T04:32:00.237Z,24.82
2019-05-01T04:34:18.337Z,21.55
2019-05-01T04:36:30.811Z,18.65
2019-05-01T04:38:35.665Z,19.32
2019-05-01T04:40:39.563Z,19.17
2019-05-01T04:42:44.194Z,21.35
2019-05-01T04:44:48.102Z,20.37
2019-05-01T04:46:53.594Z,18.30
2019-05-01T04:48:57.682Z,18.25
2019-05-01T04:51:01.694Z,19.05
2019-05-01T04:53:06.586Z,18.90
2019-05-01T04:55:11.002Z,19.45
2019-05-01T04:57:16.547Z,19.75
2019-05-01T04:59:20.860Z,19.67
2019-05-01T05:01:26.611Z,22.77
2019-05-01T05:03:30.604Z,18.90
2019-05-01T05:05:36.554Z,20.12
2019-05-01T05:07:40.458Z,20.10
2019-05-01T05:09:46.429Z,20.62
2019-05-01T05:12:01.399Z,26.25
2019-05-01T05:14:15.524Z,18.70
2019-05-01T05:16:37.613Z,21.73
2019-05-01T05:18:41.781Z,25.30
2019-05-01T05:20:45.714Z,18.35
2019-05-01T05:22:49.745Z,24.80
2019-05-01T05:24:54.726Z,20.68
2019-05-01T05:26:59.390Z,22.90
2019-05-01T05:29:03.561Z,19.12
2019-05-01T05:31:08.285Z,20.52
2019-05-01T05:33:18.573Z,20.52
2019-05-01T05:35:21.911Z,18.37
2019-05-01T05:37:39.459Z,19.77
2019-05-01T05:39:48.174Z,19.90
2019-05-01T05:41:53.237Z,19.92
2019-05-01T05:43:57.100Z,19.67
2019-05-01T05:46:00.998Z,21.27
2019-05-01T05:48:06.564Z,17.32
2019-05-01T05:50:12.384Z,17.80
2019-05-01T05:52:21.784Z,19.55
2019-05-01T05:54:31.693Z,18.70
2019-05-01T05:56:39.465Z,22.75
2019-05-01T05:58:47.612Z,18.62
2019-05-01T06:01:09.906Z,18.37
2019-05-01T06:03:35.143Z,23.07
2019-05-01T06:06:04.832Z,17.95
2019-05-01T06:08:13.872Z,20.40
2019-05-01T06:10:28.945Z,17.15
2019-05-01T06:12:41.759Z,19.32
2019-05-01T06:14:52.619Z,17.10
2019-05-01T06:16:58.264Z,17.52
2019-05-01T06:19:09.746Z,19.07
2019-05-01T06:21:19.975Z,17.98
2019-05-01T06:23:35.441Z,25.60
2019-05-01T06:25:54.047Z,18.05
2019-05-01T06:27:55.826Z,22.07
2019-05-01T06:30:00.187Z,17.98
2019-05-01T06:32:04.603Z,15.18
2019-05-01T06:34:08.462Z,17.95
2019-05-01T06:36:14.362Z,17.30
2019-05-01T06:38:18.832Z,17.20
2019-05-01T06:40:25.145Z,16.67
2019-05-01T06:42:29.119Z,18.82
2019-05-01T06:44:39.227Z,14.60
2019-05-01T06:46:51.124Z,18.00
2019-05-01T06:49:00.622Z,16.77
2019-05-01T06:51:18.891Z,14.45
2019-05-01T06:53:23.881Z,20.32
2019-05-01T06:55:28.915Z,16.40
2019-05-01T06:57:33.657Z,16.80
2019-05-01T06:59:39.612Z,13.10
2019-05-01T07:01:44.280Z,13.00
2019-05-01T07:04:02.772Z,12.95
2019-05-01T07:05:55.977Z,12.95
2019-05-01T07:08:00.566Z,12.78
2019-05-01T07:10:05.884Z,13.65
2019-05-01T07:12:11.423Z,16.20
2019-05-01T07:14:17.390Z,13.75
2019-05-01T07:16:21.844Z,11.20
2019-05-01T07:18:29.060Z,12.73
2019-05-01T07:20:35.967Z,11.73
2019-05-01T07:22:42.289Z,12.07
2019-05-01T07:24:49.000Z,13.93
2019-05-01T07:26:51.967Z,16.15
2019-05-01T07:29:00.449Z,16.05
2019-05-01T07:31:05.268Z,13.70
2019-05-01T07:33:11.988Z,12.00
2019-05-01T07:35:15.040Z,10.98
2019-05-01T07:37:20.848Z,13.58
2019-05-01T07:39:24.659Z,14.90
2019-05-01T07:41:28.660Z,12.43
2019-05-01T07:43:41.079Z,10.23
2019-05-01T07:45:50.119Z,8.95
2019-05-01T07:47:56.205Z,10.75
2019-05-01T07:50:03.013Z,8.83
2019-05-01T07:52:07.014Z,10.78
2019-05-01T07:54:10.977Z,11.63
2019-05-01T07:56:17.153Z,15.38
2019-05-01T07:58:20.699Z,13.20
2019-05-01T08:00:43.664Z,16.27
2019-05-01T08:02:47.946Z,13.55
2019-05-01T08:04:51.863Z,12.18
2019-05-01T08:06:57.096Z,15.48
2019-05-01T08:09:01.351Z,9.33
2019-05-01T08:11:10.315Z,11.93
2019-05-01T08:13:15.423Z,9.90
2019-05-01T08:15:22.461Z,11.55
2019-05-01T08:17:26.486Z,10.75
2019-05-01T08:19:39.371Z,11.70
2019-05-01T08:21:51.305Z,10.55
2019-05-01T08:23:58.334Z,12.20
2019-05-01T08:26:03.906Z,15.03
2019-05-01T08:28:09.321Z,14.18
2019-05-01T08:30:30.159Z,12.45
2019-05-01T08:32:39.271Z,9.95
2019-05-01T08:34:49.069Z,9.58
2019-05-01T08:36:51.880Z,15.40
2019-05-01T08:38:55.878Z,10.93
2019-05-01T08:40:59.893Z,10.50
2019-05-01T08:43:04.016Z,10.55
2019-05-01T08:45:09.829Z,12.40
2019-05-01T08:47:27.563Z,6.33
2019-05-01T08:49:35.559Z,7.20
2019-05-01T08:51:39.363Z,5.70
2019-05-01T08:53:43.390Z,8.53
2019-05-01T08:55:47.395Z,9.03
2019-05-01T08:57:51.302Z,11.10
2019-05-01T08:59:55.666Z,7.83
2019-05-01T09:02:08.886Z,7.58
2019-05-01T09:04:13.138Z,12.75
2019-05-01T09:06:12.432Z,9.88
2019-05-01T09:08:16.466Z,10.95
2019-05-01T09:10:21.700Z,8.50
2019-05-01T09:12:25.963Z,9.43
2019-05-01T09:14:34.870Z,12.90
2019-05-01T09:16:35.361Z,8.03
2019-05-01T09:18:39.349Z,9.10
2019-05-01T09:20:44.790Z,7.87
2019-05-01T09:22:48.730Z,10.70
2019-05-01T09:24:52.783Z,10.45
2019-05-01T09:26:58.261Z,9.10
2019-05-01T09:29:18.963Z,9.55
2019-05-01T09:31:24.403Z,10.43
2019-05-01T09:33:30.788Z,13.38
2019-05-01T09:35:33.753Z,8.98
2019-05-01T09:37:38.046Z,10.65
2019-05-01T09:39:41.924Z,9.48
2019-05-01T09:41:47.575Z,12.63
2019-05-01T09:43:51.623Z,11.80
2019-05-01T09:45:55.529Z,8.70
2019-05-01T09:47:59.534Z,14.15
2019-05-01T09:50:03.846Z,10.65
2019-05-01T09:52:12.569Z,10.53
2019-05-01T09:54:18.009Z,9.35
2019-05-01T09:56:26.446Z,10.88
2019-05-01T09:58:30.310Z,12.98
2019-05-01T10:00:34.256Z,9.85
2019-05-01T10:02:42.261Z,12.78
2019-05-01T10:04:43.627Z,14.83
2019-05-01T10:06:47.741Z,12.70
2019-05-01T10:08:53.419Z,9.43
2019-05-01T10:10:59.890Z,10.88
2019-05-01T10:13:03.029Z,13.43
2019-05-01T10:15:08.050Z,9.00
2019-05-01T10:17:13.490Z,10.55
2019-05-01T10:19:17.520Z,11.10
2019-05-01T10:21:25.530Z,12.10
2019-05-01T10:23:27.461Z,10.13
2019-05-01T10:25:31.355Z,10.28
2019-05-01T10:27:37.464Z,13.22
2019-05-01T10:29:42.907Z,14.43
2019-05-01T10:31:57.486Z,12.10
2019-05-01T10:34:18.975Z,14.00
2019-05-01T10:36:36.476Z,14.68
2019-05-01T10:38:45.118Z,18.67
2019-05-01T10:40:46.508Z,14.80
2019-05-01T10:42:50.428Z,14.98
2019-05-01T10:44:54.306Z,14.55
2019-05-01T10:46:58.412Z,14.98
2019-05-01T10:49:02.318Z,14.70
2019-05-01T10:51:06.243Z,17.62
2019-05-01T10:53:10.333Z,14.70
2019-05-01T10:55:14.350Z,16.82
2019-05-01T10:57:18.312Z,16.87
2019-05-01T10:59:22.362Z,18.40
2019-05-01T11:01:44.491Z,20.62
2019-05-01T11:03:51.777Z,20.08
2019-05-01T11:05:56.454Z,18.37
2019-05-01T11:08:00.523Z,29.98
2019-05-01T11:10:07.367Z,19.42
2019-05-01T11:12:11.285Z,23.75
2019-05-01T11:14:15.151Z,23.80
2019-05-01T11:16:19.199Z,19.82
2019-05-01T11:18:23.043Z,23.00
2019-05-01T11:20:27.111Z,21.60
2019-05-01T11:22:31.119Z,20.00
2019-05-01T11:24:35.433Z,20.50
2019-05-01T11:26:39.452Z,22.10
2019-05-01T11:28:43.691Z,24.72
2019-05-01T11:30:47.667Z,24.55
2019-05-01T11:32:54.742Z,22.75
2019-05-01T11:35:16.874Z,22.50
2019-05-01T11:37:37.390Z,22.62
2019-05-01T11:39:42.835Z,22.32
2019-05-01T11:41:57.365Z,19.73
2019-05-01T11:44:01.302Z,20.95
2019-05-01T11:46:05.481Z,22.13
2019-05-01T11:48:24.994Z,26.65
2019-05-01T11:50:27.012Z,26.65
2019-05-01T11:52:33.657Z,28.27
2019-05-01T11:54:37.900Z,27.98
2019-05-01T11:56:41.800Z,28.65
2019-05-01T11:58:45.909Z,30.45
2019-05-01T12:00:51.761Z,30.48
2019-05-01T12:02:55.625Z,27.45
2019-05-01T12:04:59.472Z,26.62
2019-05-01T12:07:03.379Z,33.08
2019-05-01T12:09:07.903Z,37.67
2019-05-01T12:11:12.413Z,41.70
2019-05-01T12:13:16.343Z,36.88
2019-05-01T12:15:20.325Z,41.10
2019-05-01T12:17:28.946Z,38.73
2019-05-01T12:19:35.929Z,36.93
2019-05-01T12:21:39.893Z,34.90
2019-05-01T12:23:43.757Z,31.07
2019-05-01T12:25:47.589Z,31.27
2019-05-01T12:27:51.677Z,30.85
2019-05-01T12:29:56.675Z,31.40
2019-05-01T12:32:00.581Z,30.65
2019-05-01T12:34:04.689Z,33.53
2019-05-01T12:36:09.107Z,30.20
2019-05-01T12:38:12.959Z,32.80
2019-05-01T12:40:17.839Z,31.68
2019-05-01T12:42:26.456Z,27.93
2019-05-01T12:44:30.361Z,29.30
2019-05-01T12:46:35.903Z,35.20
2019-05-01T12:48:39.910Z,34.88
2019-05-01T12:50:44.737Z,30.12
2019-05-01T12:52:57.973Z,29.00
2019-05-01T12:57:17.043Z,31.50
2019-05-01T12:59:20.970Z,32.58
2019-05-01T13:01:24.980Z,31.37
2019-05-01T13:03:28.841Z,36.23
2019-05-01T13:05:32.686Z,30.15
2019-05-01T13:07:36.662Z,35.00
2019-05-01T13:09:40.541Z,30.20
2019-05-01T13:11:44.560Z,36.25
2019-05-01T13:13:48.476Z,32.00
2019-05-01T13:15:52.388Z,34.63
2019-05-01T13:17:56.364Z,29.50
2019-05-01T13:20:00.293Z,29.18
2019-05-01T13:22:05.397Z,31.15
2019-05-01T13:24:09.920Z,32.10
2019-05-01T13:26:15.429Z,34.78
2019-05-01T13:28:20.868Z,32.05
2019-05-01T13:30:32.113Z,34.78
2019-05-01T13:32:44.007Z,39.20
2019-05-01T13:34:47.870Z,36.98
2019-05-01T13:37:02.324Z,44.67
2019-05-01T13:38:57.608Z,39.48
2019-05-01T13:41:01.497Z,39.70
2019-05-01T13:43:05.426Z,39.38
2019-05-01T13:45:09.575Z,40.75
2019-05-01T13:47:13.507Z,43.80
2019-05-01T13:49:17.347Z,43.80
2019-05-01T13:51:21.324Z,38.73
2019-05-01T13:53:25.246Z,34.60
2019-05-01T13:55:29.311Z,39.95
2019-05-01T13:57:33.218Z,39.83
2019-05-01T13:59:37.083Z,36.55
2019-05-01T14:01:40.992Z,43.38
2019-05-01T14:03:44.891Z,42.55
2019-05-01T14:05:48.806Z,40.43
2019-05-01T14:07:52.687Z,38.15
2019-05-01T14:09:56.922Z,40.43
2019-05-01T14:12:00.868Z,35.60
2019-05-01T14:14:04.775Z,33.78
2019-05-01T14:16:08.641Z,36.70
2019-05-01T14:18:12.689Z,36.80
2019-05-01T14:20:33.063Z,39.03
2019-05-01T14:22:38.513Z,34.43
2019-05-01T14:24:44.007Z,37.38
2019-05-01T14:26:47.991Z,37.88
2019-05-01T14:28:51.761Z,38.42
2019-05-01T14:30:55.780Z,41.70
2019-05-01T14:32:59.630Z,41.40
2019-05-01T14:35:04.917Z,43.28
2019-05-01T14:37:09.034Z,38.85
2019-05-01T14:39:12.933Z,41.77
2019-05-01T14:41:17.059Z,39.85
2019-05-01T14:43:21.055Z,38.00
2019-05-01T14:45:24.931Z,47.17
2019-05-01T14:47:28.822Z,50.17
2019-05-01T14:49:32.781Z,44.33
2019-05-01T14:51:36.639Z,45.43
2019-05-01T14:53:40.580Z,50.70
2019-05-01T14:55:44.451Z,40.78
2019-05-01T14:57:48.334Z,42.20
2019-05-01T14:59:52.401Z,38.53
2019-05-01T15:01:56.409Z,37.00
2019-05-01T15:04:00.282Z,43.83
2019-05-01T15:06:04.320Z,40.75
2019-05-01T15:08:08.530Z,42.35
2019-05-01T15:10:12.509Z,41.30
2019-05-01T15:12:16.511Z,39.13
2019-05-01T15:14:22.090Z,45.80
2019-05-01T15:16:30.298Z,47.53
2019-05-01T15:18:52.127Z,53.92
2019-05-01T15:20:56.016Z,47.45
2019-05-01T15:22:59.988Z,43.08
2019-05-01T15:25:04.849Z,44.73
2019-05-01T15:27:08.723Z,41.15
2019-05-01T15:29:12.619Z,40.55
2019-05-01T15:31:16.520Z,44.15
2019-05-01T15:33:20.512Z,39.10
2019-05-01T15:35:24.380Z,40.65
2019-05-01T15:37:28.394Z,37.93
2019-05-01T15:39:34.145Z,46.98
2019-05-01T15:41:39.555Z,41.40
2019-05-01T15:43:54.034Z,45.48
2019-05-01T15:45:57.948Z,45.95
2019-05-01T15:48:03.080Z,46.33
2019-05-01T15:50:08.517Z,46.90
2019-05-01T15:52:12.406Z,47.73
2019-05-01T15:54:16.307Z,46.25
2019-05-01T15:56:20.188Z,47.80
2019-05-01T15:58:24.183Z,47.55
2019-05-01T16:00:28.043Z,49.13
2019-05-01T16:02:31.876Z,46.53
2019-05-01T16:04:35.910Z,52.90
2019-05-01T16:06:39.795Z,50.20
2019-05-01T16:08:43.869Z,58.23
2019-05-01T16:10:52.281Z,49.85
2019-05-01T16:13:03.353Z,48.20
2019-05-01T16:15:10.228Z,48.28
2019-05-01T16:17:14.236Z,48.85
2019-05-01T16:19:18.348Z,46.40
2019-05-01T16:21:22.200Z,43.85
2019-05-01T16:23:26.158Z,46.02
2019-05-01T16:25:30.076Z,47.85
2019-05-01T16:27:34.109Z,49.27
2019-05-01T16:29:37.965Z,48.68
2019-05-01T16:31:41.852Z,50.78
2019-05-01T16:33:45.748Z,47.50
2019-05-01T16:35:49.658Z,46.35
2019-05-01T16:37:54.145Z,47.80
2019-05-01T16:39:59.854Z,46.95
2019-05-01T16:42:03.735Z,47.80
2019-05-01T16:44:07.631Z,47.30
2019-05-01T16:46:11.548Z,49.95
2019-05-01T16:48:15.350Z,48.65
2019-05-01T16:50:19.388Z,52.83
2019-05-01T16:52:24.870Z,48.63
2019-05-01T16:54:28.853Z,48.33
2019-05-01T16:56:33.318Z,47.85
2019-05-01T16:58:38.004Z,47.53
2019-05-01T17:01:01.219Z,50.92
2019-05-01T17:03:09.876Z,45.63
2019-05-01T17:05:24.194Z,51.23
2019-05-01T17:07:32.590Z,46.10
2019-05-01T17:09:41.429Z,45.33
2019-05-01T17:11:45.471Z,47.93
2019-05-01T17:13:49.386Z,47.70
2019-05-01T17:15:53.356Z,46.70
2019-05-01T17:17:57.357Z,47.65
2019-05-01T17:20:01.196Z,50.25
2019-05-01T17:22:09.281Z,49.83
2019-05-01T17:24:10.918Z,49.55
2019-05-01T17:26:14.884Z,45.08
2019-05-01T17:28:18.787Z,46.55
2019-05-01T17:30:41.984Z,41.35
2019-05-01T17:32:45.962Z,47.15
2019-05-01T17:34:49.901Z,49.08
2019-05-01T17:36:53.908Z,47.13
2019-05-01T17:38:57.763Z,44.35
2019-05-01T17:41:05.475Z,45.65
2019-05-01T17:43:13.552Z,48.25
2019-05-01T17:45:15.502Z,47.08
2019-05-01T17:47:22.524Z,49.20
2019-05-01T17:49:24.913Z,45.38
2019-05-01T17:51:32.032Z,44.73
2019-05-01T17:53:39.228Z,45.92
2019-05-01T17:55:45.844Z,47.65
2019-05-01T17:57:52.375Z,44.25
2019-05-01T18:00:02.819Z,39.58
2019-05-01T18:02:16.505Z,45.05
2019-05-01T18:04:31.091Z,45.85
2019-05-01T18:06:41.942Z,44.50
2019-05-01T18:09:02.206Z,45.23
2019-05-01T18:10:54.711Z,47.78
2019-05-01T18:12:58.720Z,48.45
2019-05-01T18:15:02.876Z,49.18
2019-05-01T18:17:07.090Z,51.10
2019-05-01T18:19:11.355Z,47.88
2019-05-01T18:21:15.353Z,50.12
2019-05-01T18:23:30.017Z,50.45
2019-05-01T18:25:35.813Z,53.90
2019-05-01T18:27:49.777Z,55.33
2019-05-01T18:29:56.032Z,51.73
2019-05-01T18:32:07.875Z,54.13
2019-05-01T18:34:10.226Z,49.70
2019-05-01T18:36:14.784Z,52.15
2019-05-01T18:38:20.242Z,51.42
2019-05-01T18:40:26.012Z,54.50
2019-05-01T18:42:30.313Z,55.73
2019-05-01T18:44:34.262Z,53.38
2019-05-01T18:46:38.421Z,54.95
2019-05-01T18:48:42.877Z,54.50
2019-05-01T18:50:49.632Z,54.03
2019-05-01T18:52:52.494Z,54.00
2019-05-01T18:54:56.324Z,49.80
2019-05-01T18:57:00.177Z,54.08
2019-05-01T18:59:04.042Z,54.35
2019-05-01T19:01:09.168Z,52.80
2019-05-01T19:03:13.664Z,50.52
2019-05-01T19:05:17.524Z,56.58
2019-05-01T19:07:21.471Z,51.20
2019-05-01T19:09:30.108Z,48.58
2019-05-01T19:11:31.973Z,53.75
2019-05-01T19:13:35.936Z,50.52
2019-05-01T19:15:40.056Z,49.42
2019-05-01T19:17:43.969Z,46.35
2019-05-01T19:19:47.871Z,50.35
2019-05-01T19:21:52.066Z,53.80
2019-05-01T19:24:00.736Z,52.20
2019-05-01T19:26:05.544Z,49.53
2019-05-01T19:28:10.310Z,46.75
2019-05-01T19:30:16.696Z,45.58
2019-05-01T19:32:21.233Z,49.23
2019-05-01T19:34:25.331Z,48.15
2019-05-01T19:36:29.223Z,50.03
2019-05-01T19:38:34.781Z,48.65
2019-05-01T19:40:39.052Z,45.15
2019-05-01T19:42:43.209Z,49.77
2019-05-01T19:44:50.910Z,43.15
2019-05-01T19:46:52.981Z,45.73
2019-05-01T19:48:56.884Z,49.03
2019-05-01T19:51:01.494Z,47.65
2019-05-01T19:53:05.390Z,47.60
2019-05-01T19:55:09.718Z,50.45
2019-05-01T19:57:13.616Z,44.50
2019-05-01T19:59:17.636Z,51.10
2019-05-01T20:01:21.725Z,46.35
2019-05-01T20:03:25.856Z,46.63
2019-05-01T20:05:29.918Z,47.40
2019-05-01T20:07:33.868Z,48.20
2019-05-01T20:09:37.887Z,46.13
2019-05-01T20:11:41.939Z,52.75
2019-05-01T20:13:45.988Z,50.80
2019-05-01T20:15:49.897Z,44.25
2019-05-01T20:17:54.006Z,44.67
2019-05-01T20:19:57.853Z,45.90
2019-05-01T20:22:01.921Z,43.78
2019-05-01T20:24:09.217Z,46.92
2019-05-01T20:26:11.326Z,47.78
2019-05-01T20:28:15.264Z,48.20
2019-05-01T20:30:19.183Z,45.48
2019-05-01T20:32:26.321Z,45.17
2019-05-01T20:34:29.038Z,48.55
2019-05-01T20:36:33.151Z,48.10
2019-05-01T20:38:37.158Z,49.77
2019-05-01T20:40:41.474Z,47.13
2019-05-01T20:42:45.353Z,52.27
2019-05-01T20:44:49.168Z,46.40
2019-05-01T20:46:53.189Z,46.75
2019-05-01T20:49:01.528Z,45.63
2019-05-01T20:51:02.823Z,50.65
2019-05-01T20:53:11.583Z,51.15
2019-05-01T20:55:15.434Z,52.27
2019-05-01T20:57:22.232Z,49.23
2019-05-01T20:59:26.344Z,55.45
2019-05-01T21:01:31.273Z,51.25
2019-05-01T21:03:36.818Z,51.75
2019-05-01T21:05:47.864Z,54.20
2019-05-01T21:08:05.487Z,51.92
2019-05-01T21:10:09.640Z,62.40
2019-05-01T21:12:13.842Z,56.98
2019-05-01T21:14:22.594Z,52.98
2019-05-01T21:16:23.699Z,47.98
2019-05-01T21:18:27.849Z,57.33
2019-05-01T21:20:33.797Z,54.90
2019-05-01T21:22:37.343Z,52.33
2019-05-01T21:24:41.470Z,53.05
2019-05-01T21:26:45.359Z,52.88
2019-05-01T21:28:49.384Z,54.70
2019-05-01T21:30:54.334Z,56.23
2019-05-01T21:32:58.536Z,54.10
2019-05-01T21:35:04.947Z,53.65
2019-05-01T21:37:09.100Z,56.85
2019-05-01T21:39:14.919Z,56.75
2019-05-01T21:41:18.853Z,56.55
2019-05-01T21:43:23.586Z,57.45
2019-05-01T21:45:27.792Z,61.13
2019-05-01T21:47:33.450Z,52.75
2019-05-01T21:49:37.343Z,57.78
2019-05-01T21:51:42.360Z,57.73
2019-05-01T21:53:46.997Z,60.40
2019-05-01T21:55:50.821Z,61.40
2019-05-01T21:57:55.130Z,55.58
2019-05-01T21:59:59.231Z,60.03
2019-05-01T22:02:05.481Z,55.03
2019-05-01T22:04:08.661Z,51.77
2019-05-01T22:06:15.420Z,57.48
2019-05-01T22:08:18.103Z,53.63
2019-05-01T22:10:26.584Z,55.48
2019-05-01T22:12:27.607Z,54.03
2019-05-01T22:14:42.127Z,55.78
2019-05-01T22:16:46.032Z,56.70
2019-05-01T22:18:51.474Z,50.67
2019-05-01T22:21:05.971Z,53.75
2019-05-01T22:23:11.420Z,49.65
2019-05-01T22:25:32.170Z,57.13
2019-05-01T22:27:40.784Z,60.20
2019-05-01T22:29:46.430Z,52.17
2019-05-01T22:31:57.442Z,52.60
2019-05-01T22:34:11.328Z,53.33
2019-05-01T22:36:15.471Z,53.50
2019-05-01T22:38:22.326Z,54.53
2019-05-01T22:40:30.587Z,50.67
2019-05-01T22:42:34.515Z,52.43
2019-05-01T22:44:41.673Z,55.35
2019-05-01T22:46:45.940Z,54.42
2019-05-01T22:48:49.822Z,58.63
2019-05-01T22:50:55.800Z,54.40
2019-05-01T22:52:59.902Z,57.13
2019-05-01T22:55:04.832Z,52.48
2019-05-01T22:57:08.739Z,56.42
2019-05-01T22:59:15.551Z,55.25
2019-05-01T23:01:19.722Z,52.95
2019-05-01T23:03:25.474Z,48.52
2019-05-01T23:05:29.533Z,50.70
2019-05-01T23:07:33.396Z,49.05
2019-05-01T23:09:38.929Z,54.25
2019-05-01T23:11:44.472Z,48.40
2019-05-01T23:13:48.377Z,50.08
2019-05-01T23:15:56.180Z,50.17
2019-05-01T23:17:58.138Z,44.90
2019-05-01T23:20:04.311Z,51.35
2019-05-01T23:22:09.219Z,48.95
2019-05-01T23:24:15.874Z,48.40
2019-05-01T23:26:19.898Z,49.85
2019-05-01T23:28:23.906Z,46.25
2019-05-01T23:30:28.032Z,52.58
2019-05-01T23:32:31.878Z,46.23
2019-05-01T23:34:36.032Z,42.93
2019-05-01T23:36:40.042Z,44.55
2019-05-01T23:38:44.151Z,43.35
2019-05-01T23:40:51.097Z,43.80
2019-05-01T23:42:54.007Z,44.88
2019-05-01T23:44:57.995Z,40.35
2019-05-01T23:47:01.902Z,39.18
2019-05-01T23:49:05.929Z,40.98
2019-05-01T23:51:09.819Z,37.03
2019-05-01T23:53:15.211Z,38.15
2019-05-01T23:55:19.792Z,35.43
2019-05-01T23:57:23.627Z,34.38
2019-05-01T23:59:29.057Z,31.65
